Weather at EuroAirport Basel-Mulhouse-Freiburg Airport

Public forecast

Using degrees Celsius for public forecast. Weather courtesy of forecast.io.

Current aviation weather report (METAR) for EuroAirport Basel-Mulhouse-Freiburg Airport

Retrieved 2020/11/25 04:30 UTC (8 minutes ago):

LFSB 250430Z 31002KT 6000 FEW004 M03/M03 Q1020 TEMPO 4000 BR

Aviation forecast (TAF) for EuroAirport Basel-Mulhouse-Freiburg Airport

Retrieved 2020-11-25 00:42 UTC (4 hours ago):

TAF LFSB 242300Z 2500/2524 15005KT 7000 NSC TEMPO 2502/2508 4000 MIFG PROB40 TEMPO 2502/2508 2000 BR